Terminal Aerodrome Forecast
Issued by NWS Charleston, WV

Current Version | Previous Version | Text Only | Print | Product List | Glossary Off
Versions: 1 2 3 4 5 6 7 8 9 10 11 12 13 14 15 16 17 18 19 20 21

665
FTUS41 KRLX 192100 AAA
TAFPKB
TAF AMD
KPKB 192100Z 1921/2018 29016G21KT P6SM SKC
     FM192300 31009KT P6SM FEW150
     FM200700 31004KT 6SM BR SCT130
     FM200900 31004KT 2SM BR OVC003
     FM201200 31004KT 4SM BR SCT003
     FM201400 33005KT P6SM BKN200=

USA.gov is the U.S. government's official web portal to all federal, state and local government web resources and services.